createdAt,value
2022-11-28T00:01:17.630Z,5.18
2022-11-28T00:03:44.814Z,5.15
2022-11-28T00:06:12.220Z,5.28
2022-11-28T00:08:39.509Z,5.25
2022-11-28T00:11:07.707Z,5.15
2022-11-28T00:13:34.922Z,5.35
2022-11-28T00:16:03.155Z,5.38
2022-11-28T00:18:31.032Z,5.10
2022-11-28T00:21:08.823Z,5.00
2022-11-28T00:23:36.474Z,5.50
2022-11-28T00:26:08.794Z,4.82
2022-11-28T00:28:36.367Z,5.60
2022-11-28T00:31:03.654Z,5.38
2022-11-28T00:33:31.423Z,5.35
2022-11-28T00:36:00.170Z,5.18
2022-11-28T00:38:27.586Z,4.53
2022-11-28T00:41:00.896Z,5.45
2022-11-28T00:43:28.283Z,4.78
2022-11-28T00:45:55.532Z,4.78
2022-11-28T00:48:22.770Z,5.28
2022-11-28T00:50:50.222Z,5.30
2022-11-28T00:53:17.709Z,4.88
2022-11-28T00:55:44.879Z,5.13
2022-11-28T00:58:12.138Z,4.60
2022-11-28T01:00:39.397Z,5.10
2022-11-28T01:03:06.528Z,5.35
2022-11-28T01:05:33.733Z,5.25
2022-11-28T01:08:01.437Z,4.95
2022-11-28T01:10:28.546Z,5.13
2022-11-28T01:12:55.769Z,5.00
2022-11-28T01:15:23.012Z,4.70
2022-11-28T01:17:50.204Z,4.80
2022-11-28T01:20:17.431Z,4.63
2022-11-28T01:22:44.630Z,4.78
2022-11-28T01:25:11.747Z,4.82
2022-11-28T01:27:38.880Z,5.05
2022-11-28T01:30:06.475Z,4.75
2022-11-28T01:32:33.754Z,4.68
2022-11-28T01:35:00.873Z,4.68
2022-11-28T01:37:30.118Z,5.00
2022-11-28T01:39:57.531Z,4.47
2022-11-28T01:42:24.717Z,4.50
2022-11-28T01:44:54.988Z,4.53
2022-11-28T01:47:23.973Z,4.55
2022-11-28T01:49:51.664Z,4.70
2022-11-28T01:52:20.456Z,4.32
2022-11-28T01:54:49.803Z,4.40
2022-11-28T01:57:18.573Z,4.85
2022-11-28T01:59:57.874Z,4.05
2022-11-28T02:02:33.120Z,4.35
2022-11-28T02:05:00.431Z,4.63
2022-11-28T02:07:28.030Z,4.13
2022-11-28T02:09:55.498Z,4.65
2022-11-28T02:12:35.570Z,4.35
2022-11-28T02:15:13.810Z,4.53
2022-11-28T02:17:50.182Z,4.55
2022-11-28T02:20:37.554Z,4.72
2022-11-28T02:23:11.038Z,4.80
2022-11-28T02:25:50.272Z,4.50
2022-11-28T02:28:17.430Z,4.93
2022-11-28T02:30:53.553Z,5.90
2022-11-28T02:33:20.668Z,4.85
2022-11-28T02:35:57.660Z,4.95
2022-11-28T02:38:24.783Z,4.97
2022-11-28T02:41:04.556Z,4.90
2022-11-28T02:43:35.544Z,5.00
2022-11-28T02:46:02.824Z,4.93
2022-11-28T02:48:46.595Z,5.07
2022-11-28T02:51:32.514Z,4.55
2022-11-28T02:54:00.673Z,4.70
2022-11-28T02:56:27.812Z,4.70
2022-11-28T02:58:55.068Z,5.13
2022-11-28T03:01:28.957Z,5.00
2022-11-28T03:03:56.190Z,5.18
2022-11-28T03:06:42.155Z,5.32
2022-11-28T03:09:26.063Z,4.85
2022-11-28T03:11:59.298Z,5.20
2022-11-28T03:14:38.379Z,4.32
2022-11-28T03:17:08.646Z,5.47
2022-11-28T03:19:38.653Z,5.28
2022-11-28T03:22:10.921Z,4.82
2022-11-28T03:24:46.664Z,5.63
2022-11-28T03:27:16.895Z,5.18
2022-11-28T03:29:47.201Z,4.72
2022-11-28T03:32:17.808Z,5.35
2022-11-28T03:34:46.788Z,5.60
2022-11-28T03:37:34.774Z,5.10
2022-11-28T03:40:07.613Z,4.75
2022-11-28T03:42:38.216Z,5.32
2022-11-28T03:45:10.625Z,5.10
2022-11-28T03:47:46.561Z,4.82
2022-11-28T03:50:16.538Z,4.63
2022-11-28T03:52:58.958Z,5.03
2022-11-28T03:55:29.077Z,4.80
2022-11-28T03:58:05.886Z,5.10
2022-11-28T04:00:35.737Z,4.60
2022-11-28T04:03:02.915Z,4.72
2022-11-28T04:05:36.637Z,5.13
2022-11-28T04:08:16.923Z,5.10
2022-11-28T04:11:03.001Z,5.10
2022-11-28T04:13:32.583Z,5.50
2022-11-28T04:16:02.829Z,5.68
2022-11-28T04:18:40.108Z,5.55
2022-11-28T04:21:25.779Z,5.72
2022-11-28T04:23:54.943Z,5.40
2022-11-28T04:26:25.676Z,4.82
2022-11-28T04:28:53.855Z,5.53
2022-11-28T04:31:22.779Z,5.75
2022-11-28T04:33:52.075Z,5.70
2022-11-28T04:36:21.083Z,5.65
2022-11-28T04:38:56.163Z,5.55
2022-11-28T04:41:25.756Z,5.50
2022-11-28T04:43:57.456Z,6.05
2022-11-28T04:46:27.122Z,5.47
2022-11-28T04:48:54.497Z,6.13
2022-11-28T04:51:23.370Z,5.75
2022-11-28T04:54:07.283Z,6.70
2022-11-28T04:56:37.880Z,5.85
2022-11-28T04:59:06.080Z,5.50
2022-11-28T05:01:34.150Z,6.57
2022-11-28T05:04:02.560Z,5.82
2022-11-28T05:06:34.145Z,6.10
2022-11-28T05:09:01.552Z,5.60
2022-11-28T05:11:28.847Z,5.80
2022-11-28T05:13:56.366Z,5.85
2022-11-28T05:16:23.700Z,5.47
2022-11-28T05:18:50.880Z,5.90
2022-11-28T05:21:18.074Z,6.00
2022-11-28T05:23:45.951Z,6.20
2022-11-28T05:26:14.859Z,5.93
2022-11-28T05:28:46.098Z,5.80
2022-11-28T05:31:13.315Z,6.28
2022-11-28T05:33:40.624Z,7.03
2022-11-28T05:36:12.902Z,6.97
2022-11-28T05:41:07.478Z,6.57
2022-11-28T05:43:34.684Z,6.47
2022-11-28T05:46:01.945Z,6.35
2022-11-28T05:48:29.171Z,6.20
2022-11-28T05:50:56.462Z,5.70
2022-11-28T05:53:23.724Z,5.53
2022-11-28T05:55:50.881Z,5.75
2022-11-28T05:58:18.051Z,5.00
2022-11-28T06:00:45.287Z,5.28
2022-11-28T06:03:12.540Z,5.70
2022-11-28T06:05:43.201Z,5.78
2022-11-28T06:08:14.451Z,5.65
2022-11-28T06:10:41.718Z,6.30
2022-11-28T06:13:09.360Z,5.88
2022-11-28T06:15:38.465Z,5.95
2022-11-28T06:18:05.978Z,5.78
2022-11-28T06:20:35.240Z,5.32
2022-11-28T06:23:02.414Z,6.32
2022-11-28T06:25:30.050Z,7.22
2022-11-28T06:27:57.234Z,5.93
2022-11-28T06:30:24.416Z,5.93
2022-11-28T06:32:51.565Z,6.10
2022-11-28T06:35:18.916Z,5.05
2022-11-28T06:37:46.075Z,6.10
2022-11-28T06:40:13.300Z,5.75
2022-11-28T06:42:40.483Z,6.20
2022-11-28T06:45:08.205Z,6.38
2022-11-28T06:47:35.353Z,5.75
2022-11-28T06:50:02.499Z,6.68
2022-11-28T06:52:29.701Z,6.50
2022-11-28T06:54:56.847Z,6.07
2022-11-28T06:57:24.205Z,7.30
2022-11-28T06:59:51.452Z,8.25
2022-11-28T07:02:18.760Z,8.48
2022-11-28T07:04:45.990Z,7.30
2022-11-28T07:07:16.532Z,8.00
2022-11-28T07:09:44.386Z,7.38
2022-11-28T07:12:11.763Z,6.88
2022-11-28T07:14:38.965Z,8.32
2022-11-28T07:17:06.188Z,10.18
2022-11-28T07:19:33.407Z,11.15
2022-11-28T07:22:00.796Z,12.38
2022-11-28T07:24:27.964Z,13.50
2022-11-28T07:26:55.147Z,9.73
2022-11-28T07:29:22.970Z,8.82
2022-11-28T07:31:50.206Z,10.18
2022-11-28T07:34:17.592Z,14.63
2022-11-28T07:36:44.769Z,23.45
2022-11-28T07:39:13.321Z,31.42
2022-11-28T07:41:40.474Z,29.55
2022-11-28T07:44:07.710Z,20.60
2022-11-28T07:46:35.250Z,17.45
2022-11-28T07:49:02.770Z,15.23
2022-11-28T07:51:30.979Z,17.08
2022-11-28T07:53:58.559Z,18.88
2022-11-28T07:56:39.332Z,15.43
2022-11-28T07:59:26.329Z,13.05
2022-11-28T08:01:54.224Z,12.68
2022-11-28T08:04:21.590Z,12.40
2022-11-28T08:06:48.756Z,11.85
2022-11-28T08:09:15.981Z,11.85
2022-11-28T08:11:43.228Z,17.27
2022-11-28T08:14:10.400Z,16.02
2022-11-28T08:16:41.169Z,19.83
2022-11-28T08:19:08.449Z,19.77
2022-11-28T08:21:35.656Z,20.17
2022-11-28T08:24:03.148Z,20.45
2022-11-28T08:26:31.388Z,21.13
2022-11-28T08:28:59.310Z,16.85
2022-11-28T08:31:28.181Z,15.55
2022-11-28T08:33:56.632Z,12.80
2022-11-28T08:36:24.042Z,12.10
2022-11-28T08:39:09.454Z,14.55
2022-11-28T08:41:38.909Z,15.13
2022-11-28T08:44:06.121Z,15.45
2022-11-28T08:46:33.893Z,13.18
2022-11-28T08:49:04.722Z,11.40
2022-11-28T08:51:32.425Z,13.18
2022-11-28T08:54:00.256Z,12.82
2022-11-28T08:56:27.716Z,12.18
2022-11-28T08:58:55.208Z,10.90
2022-11-28T09:01:24.130Z,10.82
2022-11-28T09:03:51.712Z,10.98
2022-11-28T09:06:20.539Z,10.43
2022-11-28T09:08:49.743Z,12.10
2022-11-28T09:11:17.963Z,12.18
2022-11-28T09:13:45.806Z,10.27
2022-11-28T09:16:13.494Z,11.15
2022-11-28T09:18:40.882Z,10.90
2022-11-28T09:21:09.454Z,10.98
2022-11-28T09:23:37.577Z,9.65
2022-11-28T09:26:08.969Z,11.07
2022-11-28T09:28:36.170Z,10.88
2022-11-28T09:31:04.050Z,10.80
2022-11-28T09:33:31.578Z,8.77
2022-11-28T09:35:58.825Z,10.65
2022-11-28T09:38:26.361Z,11.32
2022-11-28T09:40:53.619Z,11.93
2022-11-28T09:43:20.767Z,9.25
2022-11-28T09:45:50.991Z,9.05
2022-11-28T09:48:26.536Z,9.50
2022-11-28T09:50:55.644Z,10.48
2022-11-28T09:53:37.222Z,10.02
2022-11-28T09:56:12.831Z,10.77
2022-11-28T09:58:39.966Z,9.35
2022-11-28T10:01:34.316Z,8.98
2022-11-28T10:04:04.819Z,6.40
2022-11-28T10:06:37.422Z,6.80
2022-11-28T10:09:10.721Z,7.00
2022-11-28T10:11:56.115Z,8.00
2022-11-28T10:14:26.263Z,6.22
2022-11-28T10:16:56.545Z,6.57
2022-11-28T10:19:57.125Z,5.63
2022-11-28T10:22:18.613Z,5.43
2022-11-28T10:24:48.893Z,6.80
2022-11-28T10:27:17.155Z,4.97
2022-11-28T10:29:51.201Z,5.78
2022-11-28T10:34:48.727Z,4.10
2022-11-28T10:37:21.945Z,5.22
2022-11-28T10:39:49.377Z,5.25
2022-11-28T10:42:25.235Z,5.05
2022-11-28T10:44:52.439Z,5.55
2022-11-28T10:47:25.833Z,6.40
2022-11-28T10:49:52.934Z,7.03
2022-11-28T10:52:20.303Z,6.90
2022-11-28T10:54:47.410Z,6.30
2022-11-28T10:57:14.633Z,5.50
2022-11-28T10:59:44.997Z,5.25
2022-11-28T11:02:32.611Z,5.72
2022-11-28T11:04:59.906Z,5.75
2022-11-28T11:07:29.907Z,4.97
2022-11-28T11:10:16.215Z,5.32
2022-11-28T11:12:43.997Z,4.70
2022-11-28T11:15:19.848Z,4.70
2022-11-28T11:17:47.086Z,5.32
2022-11-28T11:20:37.602Z,5.55
2022-11-28T11:23:07.792Z,5.00
2022-11-28T11:25:35.347Z,4.72
2022-11-28T11:28:04.508Z,4.05
2022-11-28T11:30:38.679Z,4.80
2022-11-28T11:33:07.611Z,5.15
2022-11-28T11:35:36.321Z,4.95
2022-11-28T11:38:18.755Z,5.47
2022-11-28T11:40:46.003Z,4.72
2022-11-28T11:43:28.591Z,6.53
2022-11-28T11:46:04.744Z,5.55
2022-11-28T11:48:36.897Z,3.90
2022-11-28T11:51:04.648Z,3.80
2022-11-28T11:53:31.858Z,3.38
2022-11-28T11:56:01.734Z,3.53
2022-11-28T11:58:35.078Z,3.35
2022-11-28T12:01:02.785Z,3.45
2022-11-28T12:03:40.608Z,3.60
2022-11-28T12:06:14.686Z,3.85
2022-11-28T12:08:45.839Z,4.13
2022-11-28T12:11:15.848Z,5.65
2022-11-28T12:13:43.347Z,5.18
2022-11-28T12:16:28.981Z,4.65
2022-11-28T12:19:14.690Z,3.75
2022-11-28T12:21:44.869Z,3.83
2022-11-28T12:24:15.978Z,3.20
2022-11-28T12:26:46.333Z,4.95
2022-11-28T12:29:13.442Z,4.30
2022-11-28T12:31:40.697Z,3.85
2022-11-28T12:34:13.736Z,3.63
2022-11-28T12:36:46.871Z,3.88
2022-11-28T12:39:18.513Z,3.90
2022-11-28T12:41:45.696Z,4.35
2022-11-28T12:44:31.731Z,3.83
2022-11-28T12:46:58.920Z,4.95
2022-11-28T12:49:35.904Z,4.38
2022-11-28T12:52:21.979Z,4.40
2022-11-28T12:55:07.991Z,4.15
2022-11-28T12:57:40.831Z,4.07
2022-11-28T13:00:20.995Z,4.88
2022-11-28T13:02:57.317Z,4.25
2022-11-28T13:05:36.658Z,4.18
2022-11-28T13:08:22.637Z,4.45
2022-11-28T13:11:01.923Z,4.28
2022-11-28T13:13:29.319Z,4.78
2022-11-28T13:16:15.614Z,4.88
2022-11-28T13:19:05.715Z,4.85
2022-11-28T13:21:39.964Z,4.95
2022-11-28T13:24:13.033Z,4.22
2022-11-28T13:26:58.977Z,4.85
2022-11-28T13:29:38.357Z,4.22
2022-11-28T13:32:05.532Z,5.40
2022-11-28T13:34:33.669Z,5.57
2022-11-28T13:39:50.980Z,6.40
2022-11-28T13:43:02.347Z,6.47
2022-11-28T13:45:35.132Z,5.80
2022-11-28T13:48:22.727Z,6.07
2022-11-28T13:51:00.775Z,5.35
2022-11-28T13:53:28.005Z,5.40
2022-11-28T13:56:15.851Z,5.70
2022-11-28T13:58:47.167Z,5.88
2022-11-28T14:01:18.644Z,6.47
2022-11-28T14:03:54.102Z,5.95
2022-11-28T14:06:47.648Z,5.65
2022-11-28T14:09:14.906Z,7.80
2022-11-28T14:11:51.226Z,7.88
2022-11-28T14:14:34.481Z,7.65
2022-11-28T14:17:01.624Z,9.00
2022-11-28T14:19:55.419Z,10.00
2022-11-28T14:22:25.419Z,7.55
2022-11-28T14:24:56.361Z,6.47
2022-11-28T14:27:28.503Z,6.03
2022-11-28T14:29:56.791Z,5.85
2022-11-28T14:32:33.433Z,6.10
2022-11-28T14:35:01.333Z,6.32
2022-11-28T14:37:34.784Z,5.30
2022-11-28T14:40:02.223Z,6.43
2022-11-28T14:43:00.082Z,6.15
2022-11-28T14:45:35.326Z,6.90
2022-11-28T14:48:16.198Z,8.40
2022-11-28T14:50:43.555Z,7.30
2022-11-28T14:53:44.338Z,7.20
2022-11-28T14:56:14.339Z,7.28
2022-11-28T14:58:47.156Z,7.68
2022-11-28T15:03:47.789Z,7.18
2022-11-28T15:06:20.787Z,7.32
2022-11-28T15:08:57.223Z,6.40
2022-11-28T15:11:43.070Z,7.38
2022-11-28T15:14:16.598Z,6.35
2022-11-28T15:16:50.175Z,7.13
2022-11-28T15:19:21.190Z,6.82
2022-11-28T15:21:49.975Z,6.28
2022-11-28T15:24:25.015Z,5.85
2022-11-28T15:26:57.149Z,5.38
2022-11-28T15:29:26.749Z,5.75
2022-11-28T15:31:55.607Z,5.72
2022-11-28T15:34:22.843Z,7.05
2022-11-28T15:36:51.961Z,6.70
2022-11-28T15:39:25.851Z,7.40
2022-11-28T15:41:53.102Z,7.97
2022-11-28T15:44:20.354Z,7.60
2022-11-28T15:46:47.631Z,8.10
2022-11-28T15:49:31.543Z,9.50
2022-11-28T15:52:00.541Z,9.15
2022-11-28T15:54:33.898Z,7.32
2022-11-28T15:57:01.404Z,6.70
2022-11-28T15:59:29.044Z,6.97
2022-11-28T16:01:59.506Z,7.95
2022-11-28T16:04:27.233Z,8.20
2022-11-28T16:06:56.784Z,6.53
2022-11-28T16:09:26.558Z,7.15
2022-11-28T16:11:54.338Z,6.95
2022-11-28T16:14:41.961Z,7.18
2022-11-28T16:17:19.712Z,6.82
2022-11-28T16:19:47.215Z,6.20
2022-11-28T16:22:22.438Z,6.60
2022-11-28T16:24:56.538Z,7.50
2022-11-28T16:27:36.885Z,7.28
2022-11-28T16:30:24.141Z,7.88
2022-11-28T16:32:52.777Z,6.80
2022-11-28T16:35:38.941Z,7.25
2022-11-28T16:38:06.226Z,8.38
2022-11-28T16:40:33.716Z,10.27
2022-11-28T16:43:02.953Z,9.88
2022-11-28T16:45:31.743Z,9.18
2022-11-28T16:48:02.354Z,9.10
2022-11-28T16:50:29.719Z,10.02
2022-11-28T16:52:57.978Z,9.52
2022-11-28T16:55:28.054Z,9.80
2022-11-28T16:57:59.855Z,10.05
2022-11-28T17:00:27.594Z,9.43
2022-11-28T17:02:55.405Z,10.75
2022-11-28T17:05:22.566Z,11.13
2022-11-28T17:07:49.891Z,12.57
2022-11-28T17:10:17.489Z,12.48
2022-11-28T17:12:44.934Z,11.43
2022-11-28T17:15:16.315Z,10.43
2022-11-28T17:17:44.012Z,13.60
2022-11-28T17:20:12.703Z,12.00
2022-11-28T17:22:43.458Z,10.65
2022-11-28T17:25:21.345Z,9.75
2022-11-28T17:27:48.807Z,10.50
2022-11-28T17:30:16.728Z,12.55
2022-11-28T17:32:52.163Z,11.30
2022-11-28T17:35:24.135Z,13.45
2022-11-28T17:37:51.284Z,12.47
2022-11-28T17:40:33.551Z,17.65
2022-11-28T17:43:01.408Z,13.18
2022-11-28T17:45:30.008Z,14.23
2022-11-28T17:47:57.261Z,13.60
2022-11-28T17:50:24.405Z,13.48
2022-11-28T17:52:51.579Z,11.15
2022-11-28T17:55:20.675Z,10.32
2022-11-28T17:57:47.995Z,9.90
2022-11-28T18:00:16.721Z,11.23
2022-11-28T18:02:43.921Z,11.55
2022-11-28T18:05:11.183Z,11.63
2022-11-28T18:07:38.431Z,10.57
2022-11-28T18:10:05.966Z,10.38
2022-11-28T18:12:33.667Z,9.73
2022-11-28T18:15:01.452Z,10.48
2022-11-28T18:17:28.984Z,10.48
2022-11-28T18:19:57.917Z,12.35
2022-11-28T18:22:25.264Z,10.55
2022-11-28T18:24:52.430Z,10.00
2022-11-28T18:27:19.699Z,10.38
2022-11-28T18:29:47.039Z,10.50
2022-11-28T18:32:14.277Z,10.63
2022-11-28T18:34:41.396Z,9.32
2022-11-28T18:37:08.847Z,10.00
2022-11-28T18:39:36.021Z,10.77
2022-11-28T18:42:03.440Z,10.50
2022-11-28T18:44:30.839Z,10.65
2022-11-28T18:46:58.008Z,13.68
2022-11-28T18:49:25.206Z,15.63
2022-11-28T18:51:52.534Z,14.93
2022-11-28T18:54:21.554Z,11.93
2022-11-28T18:56:49.144Z,16.52
2022-11-28T18:59:16.461Z,13.70
2022-11-28T19:01:43.847Z,18.00
2022-11-28T19:04:12.806Z,15.82
2022-11-28T19:06:40.742Z,13.02
2022-11-28T19:09:09.563Z,13.93
2022-11-28T19:11:36.778Z,11.18
2022-11-28T19:14:04.170Z,13.57
2022-11-28T19:16:33.651Z,13.85
2022-11-28T19:19:01.305Z,14.13
2022-11-28T19:21:29.998Z,16.23
2022-11-28T19:23:57.740Z,18.55
2022-11-28T19:26:26.299Z,18.02
2022-11-28T19:28:53.806Z,18.98
2022-11-28T19:31:22.113Z,17.08
2022-11-28T19:34:00.594Z,14.82
2022-11-28T19:36:29.278Z,12.80
2022-11-28T19:38:56.614Z,14.32
2022-11-28T19:41:23.910Z,13.32
2022-11-28T19:43:51.654Z,12.32
2022-11-28T19:46:18.910Z,12.52
2022-11-28T19:48:46.410Z,11.85
2022-11-28T19:51:14.280Z,12.82
2022-11-28T19:53:42.366Z,11.80
2022-11-28T19:56:09.483Z,12.88
2022-11-28T19:58:36.710Z,12.88
2022-11-28T20:01:05.457Z,12.88
2022-11-28T20:03:33.819Z,14.30
2022-11-28T20:06:01.344Z,14.68
2022-11-28T20:08:29.029Z,13.60
2022-11-28T20:10:56.211Z,16.55
2022-11-28T20:13:23.500Z,15.90
2022-11-28T20:15:50.689Z,16.58
2022-11-28T20:18:17.793Z,17.27
2022-11-28T20:20:44.961Z,18.08
2022-11-28T20:23:12.138Z,20.50
2022-11-28T20:25:39.359Z,16.38
2022-11-28T20:28:06.543Z,16.60
2022-11-28T20:30:36.522Z,19.83
2022-11-28T20:33:03.639Z,20.17
2022-11-28T20:35:30.773Z,19.88
2022-11-28T20:37:58.006Z,20.38
2022-11-28T20:40:25.222Z,19.63
2022-11-28T20:42:52.434Z,21.15
2022-11-28T20:45:19.861Z,19.42
2022-11-28T20:47:49.928Z,19.02
2022-11-28T20:50:17.448Z,18.75
2022-11-28T20:52:44.636Z,18.08
2022-11-28T20:55:12.063Z,17.10
2022-11-28T20:57:39.302Z,16.48
2022-11-28T21:00:07.120Z,16.35
2022-11-28T21:02:34.349Z,14.45
2022-11-28T21:05:01.603Z,12.52
2022-11-28T21:07:29.271Z,14.75
2022-11-28T21:10:00.002Z,14.82
2022-11-28T21:12:27.298Z,13.63
2022-11-28T21:14:54.796Z,13.50
2022-11-28T21:17:22.200Z,13.82
2022-11-28T21:19:49.374Z,13.23
2022-11-28T21:22:16.494Z,14.52
2022-11-28T21:24:45.039Z,13.35
2022-11-28T21:27:12.354Z,14.15
2022-11-28T21:29:39.644Z,13.30
2022-11-28T21:32:07.812Z,15.65
2022-11-28T21:34:35.038Z,12.70
2022-11-28T21:37:02.261Z,11.35
2022-11-28T21:39:29.425Z,12.35
2022-11-28T21:41:56.626Z,11.27
2022-11-28T21:44:23.798Z,13.63
2022-11-28T21:46:50.962Z,13.63
2022-11-28T21:49:18.309Z,13.35
2022-11-28T21:51:45.522Z,12.68
2022-11-28T21:54:12.690Z,13.10
2022-11-28T21:56:39.885Z,13.63
2022-11-28T21:59:07.197Z,13.02
2022-11-28T22:01:34.472Z,12.70
2022-11-28T22:04:03.014Z,12.98
2022-11-28T22:06:30.706Z,12.75
2022-11-28T22:08:57.994Z,14.30
2022-11-28T22:11:25.547Z,12.52
2022-11-28T22:13:53.022Z,13.32
2022-11-28T22:16:21.717Z,13.48
2022-11-28T22:18:49.233Z,14.38
2022-11-28T22:24:04.060Z,14.13
2022-11-28T22:26:31.271Z,14.48
2022-11-28T22:29:01.343Z,14.25
2022-11-28T22:31:28.642Z,14.40
2022-11-28T22:33:55.994Z,14.77
2022-11-28T22:36:23.545Z,15.40
2022-11-28T22:38:54.802Z,13.98
2022-11-28T22:41:28.233Z,14.07
2022-11-28T22:43:57.361Z,14.60
2022-11-28T22:46:24.634Z,14.95
2022-11-28T22:48:52.097Z,14.73
2022-11-28T22:51:21.282Z,15.18
2022-11-28T22:53:48.433Z,15.82
2022-11-28T22:56:16.306Z,14.80
2022-11-28T22:58:44.547Z,15.10
2022-11-28T23:01:17.322Z,14.57
2022-11-28T23:06:12.903Z,14.65
2022-11-28T23:08:40.212Z,19.48
2022-11-28T23:11:07.816Z,16.50
2022-11-28T23:13:35.535Z,16.75
2022-11-28T23:16:10.060Z,16.63
2022-11-28T23:18:37.354Z,16.92
2022-11-28T23:21:04.716Z,16.88
2022-11-28T23:23:32.524Z,17.73
2022-11-28T23:26:05.287Z,17.95
2022-11-28T23:28:33.096Z,16.92
2022-11-28T23:31:06.460Z,16.45
2022-11-28T23:33:33.945Z,16.55
2022-11-28T23:36:01.208Z,16.67
2022-11-28T23:38:28.362Z,16.10
2022-11-28T23:40:56.706Z,17.08
2022-11-28T23:43:23.965Z,16.52
2022-11-28T23:45:51.254Z,17.13
2022-11-28T23:48:18.600Z,17.05
2022-11-28T23:50:45.738Z,16.17
2022-11-28T23:53:12.952Z,17.30
2022-11-28T23:55:40.179Z,16.35
2022-11-28T23:58:07.656Z,16.58
